UAE724 HAAB-OMDB
Flight info
| Callsign | UAE724 |
|---|---|
| Flight time | 3h 26m |
| Altitude | 35000 |
| Route | MIWAS2A MIWAS UT667 DWA UW885 ARSHI/N0502F340 UW885 HARGA/N0499F350 UB404 DEMGO B404 RIGAM B400 DAXAM Y414 DEDSO R401 VELIK/N0495F360 R401 MUSAP/N0497F350 R401 PEDOG Q308 KIPOK Q568 IMPED |
| Aircraft | B77W/H-SDE1E2E3FGHIJ2J3J4J5M1RWXY/LB1D1 |
Departure
| Time | 2026-04-21 14:51 |
|---|---|
| Airport | Addis Ababa Bole International Airport (HAAB) |
Arrival
| Time | 2026-04-21 18:17 |
|---|---|
| Airport | Dubai International Airport (OMDB) |
| Time | Latitude | Longitude | Altitude | Speed | Heading |
|---|---|---|---|---|---|
| 2026-04-21 13:58 | 8.98176 | 38.79481 | 7625 ft | 0 kts | 345° |
| 2026-04-21 14:37 | 8.98175 | 38.79481 | 7625 ft | 0 kts | 345° |
| 2026-04-21 14:37 | 8.98163 | 38.79485 | 7627 ft | 3 kts | 345° |
| 2026-04-21 14:37 | 8.98143 | 38.79490 | 7625 ft | 3 kts | 345° |
| 2026-04-21 14:37 | 8.98123 | 38.79496 | 7629 ft | 2 kts | 345° |
| 2026-04-21 14:38 | 8.98108 | 38.79500 | 7627 ft | 3 kts | 342° |
| 2026-04-21 14:38 | 8.98093 | 38.79506 | 7627 ft | 2 kts | 322° |
| 2026-04-21 14:38 | 8.98083 | 38.79515 | 7633 ft | 2 kts | 291° |
| 2026-04-21 14:38 | 8.98080 | 38.79528 | 7632 ft | 3 kts | 258° |
| 2026-04-21 14:39 | 8.98085 | 38.79547 | 7633 ft | 2 kts | 250° |
| 2026-04-21 14:39 | 8.98091 | 38.79563 | 7630 ft | 1 kts | 253° |
| 2026-04-21 14:42 | 8.98086 | 38.79546 | 7633 ft | 6 kts | 253° |
| 2026-04-21 14:42 | 8.98068 | 38.79485 | 7627 ft | 12 kts | 253° |
| 2026-04-21 14:42 | 8.98043 | 38.79397 | 7625 ft | 14 kts | 253° |
| 2026-04-21 14:43 | 8.98016 | 38.79304 | 7625 ft | 14 kts | 253° |
| 2026-04-21 14:43 | 8.97986 | 38.79202 | 7625 ft | 16 kts | 253° |
| 2026-04-21 14:43 | 8.97954 | 38.79089 | 7625 ft | 17 kts | 253° |
| 2026-04-21 14:43 | 8.97918 | 38.78967 | 7625 ft | 19 kts | 253° |
| 2026-04-21 14:44 | 8.97880 | 38.78838 | 7626 ft | 20 kts | 253° |
| 2026-04-21 14:44 | 8.97835 | 38.78711 | 7626 ft | 16 kts | 232° |
| 2026-04-21 14:44 | 8.97761 | 38.78626 | 7626 ft | 17 kts | 241° |
| 2026-04-21 14:44 | 8.97750 | 38.78524 | 7626 ft | 13 kts | 295° |
| 2026-04-21 14:45 | 8.97797 | 38.78444 | 7626 ft | 14 kts | 270° |
| 2026-04-21 14:45 | 8.97777 | 38.78344 | 7626 ft | 15 kts | 257° |
| 2026-04-21 14:45 | 8.97742 | 38.78237 | 7626 ft | 16 kts | 238° |
| 2026-04-21 14:45 | 8.97666 | 38.78204 | 7626 ft | 13 kts | 180° |
| 2026-04-21 14:46 | 8.97578 | 38.78216 | 7626 ft | 13 kts | 167° |
| 2026-04-21 14:46 | 8.97485 | 38.78239 | 7627 ft | 14 kts | 164° |
| 2026-04-21 14:46 | 8.97388 | 38.78269 | 7626 ft | 15 kts | 159° |
| 2026-04-21 14:46 | 8.97331 | 38.78303 | 7625 ft | 0 kts | 143° |
| 2026-04-21 14:48 | 8.97330 | 38.78304 | 7625 ft | 1 kts | 143° |
| 2026-04-21 14:48 | 8.97315 | 38.78315 | 7625 ft | 4 kts | 143° |
| 2026-04-21 14:48 | 8.97284 | 38.78339 | 7624 ft | 9 kts | 143° |
| 2026-04-21 14:48 | 8.97250 | 38.78416 | 7624 ft | 16 kts | 82° |
| 2026-04-21 14:49 | 8.97293 | 38.78567 | 7626 ft | 24 kts | 73° |
| 2026-04-21 14:49 | 8.97341 | 38.78727 | 7625 ft | 24 kts | 73° |
| 2026-04-21 14:49 | 8.97360 | 38.78790 | 7626 ft | 0 kts | 74° |
| 2026-04-21 14:50 | 8.97374 | 38.78840 | 7626 ft | 37 kts | 74° |
| 2026-04-21 14:50 | 8.97629 | 38.79704 | 7625 ft | 154 kts | 73° |
| 2026-04-21 14:50 | 8.97952 | 38.80896 | 7667 ft | 184 kts | 77° |
| 2026-04-21 14:50 | 8.98276 | 38.82105 | 8182 ft | 172 kts | 77° |
| 2026-04-21 14:51 | 8.98539 | 38.83283 | 8706 ft | 170 kts | 82° |
| 2026-04-21 14:51 | 8.98840 | 38.84458 | 9100 ft | 184 kts | 74° |
| 2026-04-21 14:51 | 8.99266 | 38.85773 | 9225 ft | 208 kts | 75° |
| 2026-04-21 14:51 | 8.99725 | 38.87249 | 9429 ft | 235 kts | 74° |
| 2026-04-21 14:52 | 9.00225 | 38.88886 | 9703 ft | 259 kts | 74° |
| 2026-04-21 14:52 | 9.00780 | 38.90721 | 10139 ft | 278 kts | 74° |
| 2026-04-21 14:52 | 9.01344 | 38.92600 | 10155 ft | 284 kts | 75° |
| 2026-04-21 14:52 | 9.01915 | 38.94523 | 10138 ft | 290 kts | 75° |
| 2026-04-21 14:53 | 9.02497 | 38.96491 | 10123 ft | 291 kts | 75° |
| 2026-04-21 14:53 | 9.03068 | 38.98434 | 10107 ft | 286 kts | 75° |
| 2026-04-21 14:53 | 9.03635 | 39.00367 | 10113 ft | 286 kts | 75° |
| 2026-04-21 14:53 | 9.04204 | 39.02311 | 10225 ft | 296 kts | 75° |
| 2026-04-21 14:54 | 9.04805 | 39.04374 | 10428 ft | 322 kts | 75° |
| 2026-04-21 14:54 | 9.05415 | 39.06647 | 10618 ft | 348 kts | 76° |
| 2026-04-21 14:54 | 9.06037 | 39.09084 | 10915 ft | 368 kts | 76° |
| 2026-04-21 14:54 | 9.06678 | 39.11623 | 11743 ft | 371 kts | 76° |
| 2026-04-21 14:55 | 9.07318 | 39.14158 | 12591 ft | 377 kts | 75° |
| 2026-04-21 14:55 | 9.07982 | 39.16775 | 13170 ft | 388 kts | 75° |
| 2026-04-21 14:55 | 9.08661 | 39.19445 | 13869 ft | 397 kts | 74° |
| 2026-04-21 14:55 | 9.09355 | 39.22166 | 14491 ft | 404 kts | 75° |
| 2026-04-21 14:56 | 9.10054 | 39.24905 | 15280 ft | 405 kts | 75° |
| 2026-04-21 14:56 | 9.10754 | 39.27649 | 16062 ft | 408 kts | 75° |
| 2026-04-21 14:56 | 9.11468 | 39.30450 | 16754 ft | 412 kts | 75° |
| 2026-04-21 14:56 | 9.12186 | 39.33259 | 17611 ft | 412 kts | 76° |
| 2026-04-21 14:57 | 9.12895 | 39.36036 | 18275 ft | 418 kts | 76° |
| 2026-04-21 14:57 | 9.13640 | 39.38954 | 18613 ft | 428 kts | 76° |
| 2026-04-21 14:57 | 9.14390 | 39.41888 | 19161 ft | 432 kts | 76° |
| 2026-04-21 14:57 | 9.15127 | 39.44778 | 19784 ft | 434 kts | 75° |
| 2026-04-21 14:58 | 9.15894 | 39.47788 | 20247 ft | 441 kts | 75° |
| 2026-04-21 14:58 | 9.16659 | 39.50789 | 20692 ft | 447 kts | 75° |
| 2026-04-21 14:58 | 9.17440 | 39.53855 | 21153 ft | 452 kts | 75° |
| 2026-04-21 14:58 | 9.18226 | 39.56939 | 21599 ft | 457 kts | 75° |
| 2026-04-21 14:59 | 9.19026 | 39.60082 | 22110 ft | 461 kts | 75° |
| 2026-04-21 14:59 | 9.19835 | 39.63257 | 22593 ft | 464 kts | 75° |
| 2026-04-21 14:59 | 9.20645 | 39.66442 | 23079 ft | 468 kts | 75° |
| 2026-04-21 14:59 | 9.21462 | 39.69653 | 23485 ft | 472 kts | 75° |
| 2026-04-21 15:00 | 9.22275 | 39.72850 | 23783 ft | 477 kts | 75° |
| 2026-04-21 15:00 | 9.23113 | 39.76149 | 24116 ft | 482 kts | 75° |
| 2026-04-21 15:00 | 9.23941 | 39.79405 | 24355 ft | 488 kts | 75° |
| 2026-04-21 15:00 | 9.24770 | 39.82669 | 24780 ft | 488 kts | 75° |
| 2026-04-21 15:01 | 9.25630 | 39.86064 | 25184 ft | 490 kts | 75° |
| 2026-04-21 15:01 | 9.26477 | 39.89397 | 25434 ft | 495 kts | 75° |
| 2026-04-21 15:01 | 9.27343 | 39.92814 | 25727 ft | 499 kts | 75° |
| 2026-04-21 15:01 | 9.28197 | 39.96184 | 26043 ft | 501 kts | 75° |
| 2026-04-21 15:02 | 9.29057 | 39.99579 | 26364 ft | 503 kts | 75° |
| 2026-04-21 15:02 | 9.29922 | 40.02993 | 26656 ft | 505 kts | 75° |
| 2026-04-21 15:02 | 9.30811 | 40.06506 | 26947 ft | 508 kts | 75° |
| 2026-04-21 15:02 | 9.31668 | 40.09892 | 27201 ft | 510 kts | 75° |
| 2026-04-21 15:03 | 9.32566 | 40.13444 | 27461 ft | 513 kts | 75° |
| 2026-04-21 15:03 | 9.33441 | 40.16905 | 27701 ft | 515 kts | 75° |
| 2026-04-21 15:03 | 9.34330 | 40.20423 | 27953 ft | 517 kts | 75° |
| 2026-04-21 15:03 | 9.35216 | 40.23930 | 28260 ft | 517 kts | 75° |
| 2026-04-21 15:04 | 9.36114 | 40.27487 | 28655 ft | 515 kts | 75° |
| 2026-04-21 15:04 | 9.37012 | 40.31044 | 29068 ft | 514 kts | 75° |
| 2026-04-21 15:04 | 9.37884 | 40.34501 | 29473 ft | 513 kts | 75° |
| 2026-04-21 15:04 | 9.38766 | 40.38001 | 29863 ft | 512 kts | 75° |
| 2026-04-21 15:05 | 9.39641 | 40.41471 | 30212 ft | 512 kts | 75° |
| 2026-04-21 15:05 | 9.41157 | 40.48542 | 30908 ft | 511 kts | 79° |
| 2026-04-21 15:05 | 9.41753 | 40.52087 | 31252 ft | 511 kts | 80° |
| 2026-04-21 15:06 | 9.42314 | 40.55594 | 31604 ft | 510 kts | 80° |
| 2026-04-21 15:06 | 9.42877 | 40.59108 | 31956 ft | 510 kts | 80° |
| 2026-04-21 15:06 | 9.43431 | 40.62481 | 32296 ft | 509 kts | 79° |
| 2026-04-21 15:06 | 9.44004 | 40.65884 | 32638 ft | 509 kts | 79° |
| 2026-04-21 15:07 | 9.44608 | 40.69401 | 32978 ft | 509 kts | 79° |
| 2026-04-21 15:07 | 9.45217 | 40.72913 | 33258 ft | 510 kts | 79° |
| 2026-04-21 15:07 | 9.46473 | 40.80108 | 33345 ft | 522 kts | 79° |
| 2026-04-21 15:08 | 9.47739 | 40.87389 | 33439 ft | 529 kts | 79° |
| 2026-04-21 15:08 | 9.48367 | 40.91012 | 33560 ft | 530 kts | 79° |
| 2026-04-21 15:08 | 9.49003 | 40.94687 | 33763 ft | 530 kts | 79° |
| 2026-04-21 15:09 | 9.49637 | 40.98355 | 33983 ft | 529 kts | 79° |
| 2026-04-21 15:09 | 9.50256 | 41.01938 | 34182 ft | 528 kts | 79° |
| 2026-04-21 15:09 | 9.50893 | 41.05626 | 34365 ft | 528 kts | 79° |
| 2026-04-21 15:09 | 9.51525 | 41.09288 | 34546 ft | 528 kts | 79° |
| 2026-04-21 15:10 | 9.52154 | 41.12938 | 34703 ft | 528 kts | 79° |
| 2026-04-21 15:10 | 9.52784 | 41.16590 | 34729 ft | 530 kts | 79° |
| 2026-04-21 15:10 | 9.54057 | 41.23978 | 34844 ft | 529 kts | 79° |
| 2026-04-21 15:11 | 9.54687 | 41.27641 | 35023 ft | 529 kts | 79° |
| 2026-04-21 15:11 | 9.55322 | 41.31337 | 35250 ft | 527 kts | 79° |
| 2026-04-21 15:11 | 9.55943 | 41.34950 | 35467 ft | 526 kts | 79° |
| 2026-04-21 15:11 | 9.56566 | 41.38575 | 35680 ft | 525 kts | 79° |
| 2026-04-21 15:12 | 9.57188 | 41.42203 | 35851 ft | 525 kts | 79° |
| 2026-04-21 15:12 | 9.57820 | 41.45883 | 36038 ft | 525 kts | 79° |
| 2026-04-21 15:12 | 9.58443 | 41.49519 | 36215 ft | 524 kts | 78° |
| 2026-04-21 15:12 | 9.59065 | 41.53152 | 36419 ft | 524 kts | 78° |
| 2026-04-21 15:13 | 9.59473 | 41.55536 | 36525 ft | 524 kts | 78° |
| 2026-04-21 15:13 | 9.60301 | 41.60373 | 36733 ft | 524 kts | 78° |
| 2026-04-21 15:13 | 9.61546 | 41.67657 | 36825 ft | 525 kts | 78° |
| 2026-04-21 15:14 | 9.62786 | 41.74924 | 36817 ft | 523 kts | 78° |
| 2026-04-21 15:14 | 9.63976 | 41.82187 | 36831 ft | 521 kts | 82° |
| 2026-04-21 15:15 | 9.64231 | 41.89522 | 36830 ft | 522 kts | 92° |
| 2026-04-21 15:15 | 9.63765 | 41.96810 | 36854 ft | 523 kts | 92° |
| 2026-04-21 15:16 | 9.63275 | 42.04169 | 36851 ft | 524 kts | 92° |
| 2026-04-21 15:16 | 9.62826 | 42.11528 | 36857 ft | 524 kts | 92° |
| 2026-04-21 15:17 | 9.62400 | 42.18895 | 36859 ft | 525 kts | 92° |
| 2026-04-21 15:17 | 9.61974 | 42.26256 | 36870 ft | 525 kts | 92° |
| 2026-04-21 15:18 | 9.61543 | 42.33654 | 36868 ft | 526 kts | 92° |
| 2026-04-21 15:18 | 9.61108 | 42.41052 | 36875 ft | 525 kts | 92° |
| 2026-04-21 15:19 | 9.60671 | 42.48449 | 36883 ft | 525 kts | 92° |
| 2026-04-21 15:19 | 9.60234 | 42.55826 | 36878 ft | 526 kts | 92° |
| 2026-04-21 15:20 | 9.59798 | 42.63172 | 36882 ft | 525 kts | 92° |
| 2026-04-21 15:20 | 9.59355 | 42.70562 | 36878 ft | 525 kts | 92° |
| 2026-04-21 15:21 | 9.58914 | 42.77937 | 36884 ft | 525 kts | 92° |
| 2026-04-21 15:21 | 9.58472 | 42.85305 | 36882 ft | 524 kts | 92° |
| 2026-04-21 15:22 | 9.58030 | 42.92636 | 36879 ft | 524 kts | 92° |
| 2026-04-21 15:22 | 9.57585 | 42.99994 | 36877 ft | 524 kts | 92° |
| 2026-04-21 15:23 | 9.57137 | 43.07369 | 36867 ft | 524 kts | 92° |
| 2026-04-21 15:23 | 9.56690 | 43.14702 | 36873 ft | 524 kts | 92° |
| 2026-04-21 15:24 | 9.56240 | 43.22063 | 36864 ft | 524 kts | 92° |
| 2026-04-21 15:24 | 9.55789 | 43.29413 | 36869 ft | 523 kts | 92° |
| 2026-04-21 15:25 | 9.55336 | 43.36783 | 36861 ft | 523 kts | 92° |
| 2026-04-21 15:25 | 9.54914 | 43.44101 | 36862 ft | 523 kts | 91° |
| 2026-04-21 15:26 | 9.54629 | 43.51431 | 36859 ft | 522 kts | 90° |
| 2026-04-21 15:26 | 9.54364 | 43.58792 | 36859 ft | 522 kts | 90° |
| 2026-04-21 15:27 | 9.54078 | 43.66103 | 36858 ft | 522 kts | 90° |
| 2026-04-21 15:27 | 9.53777 | 43.73455 | 36854 ft | 522 kts | 90° |
| 2026-04-21 15:28 | 9.53475 | 43.80807 | 36853 ft | 522 kts | 90° |
| 2026-04-21 15:28 | 9.53173 | 43.88147 | 36851 ft | 522 kts | 90° |
| 2026-04-21 15:29 | 9.52872 | 43.95448 | 36851 ft | 522 kts | 90° |
| 2026-04-21 15:29 | 9.52570 | 44.02784 | 36846 ft | 522 kts | 90° |
| 2026-04-21 15:30 | 9.52728 | 44.06445 | 36832 ft | 519 kts | 79° |
| 2026-04-21 15:30 | 9.53472 | 44.09995 | 36857 ft | 516 kts | 71° |
| 2026-04-21 15:30 | 9.56349 | 44.16594 | 36856 ft | 510 kts | 57° |
| 2026-04-21 15:31 | 9.60002 | 44.22765 | 36840 ft | 511 kts | 56° |
| 2026-04-21 15:31 | 9.63632 | 44.28888 | 36841 ft | 511 kts | 57° |
| 2026-04-21 15:32 | 9.67254 | 44.35116 | 36841 ft | 512 kts | 57° |
| 2026-04-21 15:32 | 9.70835 | 44.41339 | 36841 ft | 512 kts | 57° |
| 2026-04-21 15:33 | 9.74415 | 44.47574 | 36838 ft | 513 kts | 57° |
| 2026-04-21 15:33 | 9.77982 | 44.53783 | 36836 ft | 513 kts | 57° |
| 2026-04-21 15:34 | 9.81571 | 44.60026 | 36839 ft | 513 kts | 57° |
| 2026-04-21 15:34 | 9.85170 | 44.66291 | 36842 ft | 513 kts | 57° |
| 2026-04-21 15:35 | 9.88762 | 44.72547 | 36843 ft | 514 kts | 57° |
| 2026-04-21 15:35 | 9.92340 | 44.78782 | 36842 ft | 514 kts | 57° |
| 2026-04-21 15:36 | 9.95934 | 44.85049 | 36839 ft | 514 kts | 57° |
| 2026-04-21 15:36 | 9.99442 | 44.91169 | 36840 ft | 514 kts | 57° |
| 2026-04-21 15:37 | 10.02427 | 44.96380 | 36842 ft | 515 kts | 57° |
| 2026-04-21 15:37 | 10.06020 | 45.02654 | 36839 ft | 515 kts | 57° |
| 2026-04-21 15:38 | 10.10206 | 45.09967 | 36831 ft | 515 kts | 57° |
| 2026-04-21 15:38 | 10.13798 | 45.16247 | 36826 ft | 515 kts | 57° |
| 2026-04-21 15:39 | 10.16783 | 45.21469 | 36824 ft | 515 kts | 57° |
| 2026-04-21 15:39 | 10.20371 | 45.27748 | 36820 ft | 515 kts | 57° |
| 2026-04-21 15:40 | 10.24539 | 45.35049 | 36810 ft | 515 kts | 57° |
| 2026-04-21 15:40 | 10.27535 | 45.40298 | 36806 ft | 515 kts | 57° |
| 2026-04-21 15:41 | 10.31119 | 45.46580 | 36804 ft | 515 kts | 57° |
| 2026-04-21 15:41 | 10.34708 | 45.52877 | 36791 ft | 516 kts | 57° |
| 2026-04-21 15:42 | 10.38306 | 45.59192 | 36798 ft | 516 kts | 57° |
| 2026-04-21 15:42 | 10.41896 | 45.65496 | 36790 ft | 516 kts | 57° |
| 2026-04-21 15:43 | 10.45491 | 45.71812 | 36804 ft | 516 kts | 57° |
| 2026-04-21 15:43 | 10.49051 | 45.78072 | 36800 ft | 516 kts | 57° |
| 2026-04-21 15:44 | 10.52648 | 45.84400 | 36803 ft | 516 kts | 57° |
| 2026-04-21 15:44 | 10.56235 | 45.90714 | 36812 ft | 516 kts | 57° |
| 2026-04-21 15:45 | 10.59799 | 45.96991 | 36819 ft | 517 kts | 57° |
| 2026-04-21 15:45 | 10.63391 | 46.03320 | 36817 ft | 517 kts | 57° |
| 2026-04-21 15:46 | 10.66977 | 46.09645 | 36811 ft | 517 kts | 57° |
| 2026-04-21 15:46 | 10.70564 | 46.15974 | 36804 ft | 518 kts | 57° |
| 2026-04-21 15:47 | 10.74167 | 46.22336 | 36810 ft | 517 kts | 57° |
| 2026-04-21 15:47 | 10.77735 | 46.28639 | 36805 ft | 517 kts | 57° |
| 2026-04-21 15:48 | 10.81316 | 46.34958 | 36805 ft | 517 kts | 57° |
| 2026-04-21 15:48 | 10.84958 | 46.41275 | 36806 ft | 517 kts | 56° |
| 2026-04-21 15:49 | 10.88610 | 46.47578 | 36800 ft | 517 kts | 56° |
| 2026-04-21 15:49 | 10.92233 | 46.53851 | 36797 ft | 517 kts | 56° |
| 2026-04-21 15:50 | 10.95868 | 46.60162 | 36795 ft | 517 kts | 57° |
| 2026-04-21 15:50 | 10.99503 | 46.66478 | 36800 ft | 517 kts | 56° |
| 2026-04-21 15:51 | 11.03128 | 46.72780 | 36795 ft | 517 kts | 56° |
| 2026-04-21 15:51 | 11.06764 | 46.79104 | 36801 ft | 517 kts | 56° |
| 2026-04-21 15:52 | 11.10363 | 46.85367 | 36802 ft | 517 kts | 56° |
| 2026-04-21 15:52 | 11.13996 | 46.91694 | 36800 ft | 517 kts | 56° |
| 2026-04-21 15:53 | 11.17627 | 46.98020 | 36803 ft | 517 kts | 56° |
| 2026-04-21 15:53 | 11.21249 | 47.04335 | 36805 ft | 517 kts | 56° |
| 2026-04-21 15:54 | 11.24855 | 47.10627 | 36800 ft | 517 kts | 56° |
| 2026-04-21 15:54 | 11.28479 | 47.16953 | 36806 ft | 517 kts | 56° |
| 2026-04-21 15:55 | 11.32097 | 47.23274 | 36809 ft | 517 kts | 56° |
| 2026-04-21 15:55 | 11.35723 | 47.29613 | 36810 ft | 517 kts | 56° |
| 2026-04-21 15:56 | 11.39335 | 47.35925 | 36808 ft | 517 kts | 56° |
| 2026-04-21 15:56 | 11.42953 | 47.42241 | 36812 ft | 517 kts | 56° |
| 2026-04-21 15:57 | 11.46579 | 47.48575 | 36807 ft | 517 kts | 56° |
| 2026-04-21 15:57 | 11.50191 | 47.54893 | 36810 ft | 517 kts | 56° |
| 2026-04-21 15:58 | 11.53805 | 47.61219 | 36813 ft | 517 kts | 56° |
| 2026-04-21 15:58 | 11.57417 | 47.67545 | 36816 ft | 517 kts | 56° |
| 2026-04-21 15:59 | 11.61054 | 47.73919 | 36816 ft | 517 kts | 56° |
| 2026-04-21 15:59 | 11.64652 | 47.80229 | 36817 ft | 518 kts | 56° |
| 2026-04-21 16:00 | 11.68261 | 47.86562 | 36822 ft | 518 kts | 56° |
| 2026-04-21 16:00 | 11.71867 | 47.92895 | 36820 ft | 518 kts | 56° |
| 2026-04-21 16:01 | 11.75505 | 47.99287 | 36820 ft | 518 kts | 56° |
| 2026-04-21 16:01 | 11.79100 | 48.05607 | 36822 ft | 518 kts | 56° |
| 2026-04-21 16:02 | 11.82713 | 48.11965 | 36822 ft | 518 kts | 56° |
| 2026-04-21 16:02 | 11.86326 | 48.18326 | 36827 ft | 518 kts | 56° |
| 2026-04-21 16:03 | 11.89920 | 48.24658 | 36824 ft | 518 kts | 56° |
| 2026-04-21 16:03 | 11.93552 | 48.31061 | 36824 ft | 518 kts | 56° |
| 2026-04-21 16:04 | 11.97146 | 48.37402 | 36824 ft | 518 kts | 56° |
| 2026-04-21 16:04 | 12.00751 | 48.43767 | 36830 ft | 519 kts | 56° |
| 2026-04-21 16:05 | 12.04356 | 48.50135 | 36828 ft | 519 kts | 56° |
| 2026-04-21 16:05 | 12.07994 | 48.56473 | 36824 ft | 519 kts | 56° |
| 2026-04-21 16:06 | 12.11689 | 48.62790 | 36825 ft | 519 kts | 56° |
| 2026-04-21 16:06 | 12.15394 | 48.69128 | 36825 ft | 519 kts | 56° |
| 2026-04-21 16:07 | 12.19077 | 48.75456 | 36823 ft | 518 kts | 56° |
| 2026-04-21 16:07 | 12.22756 | 48.81793 | 36824 ft | 518 kts | 56° |
| 2026-04-21 16:08 | 12.28243 | 48.91252 | 36823 ft | 518 kts | 56° |
| 2026-04-21 16:09 | 12.31920 | 48.97593 | 36820 ft | 518 kts | 56° |
| 2026-04-21 16:09 | 12.35592 | 49.03932 | 36821 ft | 517 kts | 56° |
| 2026-04-21 16:10 | 12.39254 | 49.10255 | 36824 ft | 517 kts | 56° |
| 2026-04-21 16:10 | 12.42896 | 49.16549 | 36825 ft | 517 kts | 56° |
| 2026-04-21 16:11 | 12.46552 | 49.22873 | 36829 ft | 517 kts | 56° |
| 2026-04-21 16:11 | 12.50220 | 49.29221 | 36829 ft | 517 kts | 56° |
| 2026-04-21 16:12 | 12.53881 | 49.35560 | 36825 ft | 517 kts | 56° |
| 2026-04-21 16:12 | 12.57535 | 49.41893 | 36830 ft | 517 kts | 56° |
| 2026-04-21 16:13 | 12.61176 | 49.48208 | 36830 ft | 518 kts | 56° |
| 2026-04-21 16:13 | 12.64823 | 49.54536 | 36832 ft | 518 kts | 56° |
| 2026-04-21 16:14 | 12.68469 | 49.60868 | 36832 ft | 518 kts | 56° |
| 2026-04-21 16:14 | 12.72142 | 49.67252 | 36833 ft | 518 kts | 56° |
| 2026-04-21 16:15 | 12.75769 | 49.73560 | 36834 ft | 518 kts | 56° |
| 2026-04-21 16:15 | 12.79431 | 49.79932 | 36833 ft | 518 kts | 56° |
| 2026-04-21 16:16 | 12.83086 | 49.86298 | 36837 ft | 518 kts | 55° |
| 2026-04-21 16:16 | 12.86727 | 49.92643 | 36835 ft | 518 kts | 55° |
| 2026-04-21 16:17 | 12.90352 | 49.98965 | 36840 ft | 517 kts | 55° |
| 2026-04-21 16:17 | 12.93991 | 50.05317 | 36838 ft | 517 kts | 55° |
| 2026-04-21 16:18 | 12.97637 | 50.11685 | 36835 ft | 517 kts | 55° |
| 2026-04-21 16:18 | 13.01269 | 50.18033 | 36836 ft | 517 kts | 55° |
| 2026-04-21 16:19 | 13.04880 | 50.24348 | 36839 ft | 517 kts | 55° |
| 2026-04-21 16:19 | 13.08512 | 50.30706 | 36840 ft | 516 kts | 55° |
| 2026-04-21 16:20 | 13.12135 | 50.37052 | 36848 ft | 516 kts | 55° |
| 2026-04-21 16:20 | 13.15762 | 50.43412 | 36846 ft | 516 kts | 55° |
| 2026-04-21 16:21 | 13.19389 | 50.49774 | 36851 ft | 516 kts | 55° |
| 2026-04-21 16:21 | 13.22981 | 50.56089 | 36848 ft | 516 kts | 55° |
| 2026-04-21 16:22 | 13.26587 | 50.62454 | 36852 ft | 516 kts | 55° |
| 2026-04-21 16:22 | 13.30195 | 50.68830 | 36852 ft | 516 kts | 55° |
| 2026-04-21 16:23 | 13.33794 | 50.75193 | 36851 ft | 516 kts | 55° |
| 2026-04-21 16:23 | 13.37370 | 50.81519 | 36856 ft | 516 kts | 55° |
| 2026-04-21 16:24 | 13.40970 | 50.87889 | 36859 ft | 516 kts | 55° |
| 2026-04-21 16:24 | 13.44564 | 50.94256 | 36857 ft | 516 kts | 55° |
| 2026-04-21 16:25 | 13.48165 | 51.00640 | 36857 ft | 516 kts | 55° |
| 2026-04-21 16:25 | 13.51738 | 51.06978 | 36862 ft | 516 kts | 55° |
| 2026-04-21 16:26 | 13.55327 | 51.13350 | 36863 ft | 516 kts | 55° |
| 2026-04-21 16:26 | 13.58919 | 51.19733 | 36863 ft | 516 kts | 55° |
| 2026-04-21 16:27 | 13.62521 | 51.26137 | 36862 ft | 516 kts | 55° |
| 2026-04-21 16:27 | 13.66085 | 51.32480 | 36868 ft | 516 kts | 55° |
| 2026-04-21 16:28 | 13.69672 | 51.38868 | 36874 ft | 517 kts | 55° |
| 2026-04-21 16:28 | 13.73124 | 51.45022 | 36876 ft | 519 kts | 55° |
| 2026-04-21 16:29 | 13.76753 | 51.51431 | 36875 ft | 520 kts | 54° |
| 2026-04-21 16:29 | 13.80452 | 51.57811 | 36865 ft | 521 kts | 54° |
| 2026-04-21 16:30 | 13.84175 | 51.64221 | 36867 ft | 521 kts | 54° |
| 2026-04-21 16:30 | 13.87852 | 51.70583 | 36885 ft | 522 kts | 54° |
| 2026-04-21 16:31 | 13.91555 | 51.77010 | 36884 ft | 522 kts | 54° |
| 2026-04-21 16:31 | 13.95260 | 51.83446 | 36865 ft | 522 kts | 54° |
| 2026-04-21 16:32 | 13.98958 | 51.89874 | 36870 ft | 522 kts | 54° |
| 2026-04-21 16:32 | 14.02628 | 51.96256 | 36892 ft | 521 kts | 54° |
| 2026-04-21 16:33 | 14.06319 | 52.02680 | 36873 ft | 521 kts | 54° |
| 2026-04-21 16:33 | 14.10001 | 52.09095 | 36874 ft | 521 kts | 54° |
| 2026-04-21 16:34 | 14.13694 | 52.15532 | 36894 ft | 521 kts | 54° |
| 2026-04-21 16:34 | 14.17359 | 52.21926 | 36877 ft | 521 kts | 54° |
| 2026-04-21 16:35 | 14.21027 | 52.28329 | 36887 ft | 521 kts | 54° |
| 2026-04-21 16:35 | 14.24713 | 52.34771 | 36883 ft | 520 kts | 54° |
| 2026-04-21 16:36 | 14.28390 | 52.41200 | 36881 ft | 520 kts | 54° |
| 2026-04-21 16:36 | 14.32036 | 52.47582 | 36883 ft | 520 kts | 54° |
| 2026-04-21 16:37 | 14.35713 | 52.54022 | 36885 ft | 520 kts | 54° |
| 2026-04-21 16:37 | 14.39376 | 52.60443 | 36885 ft | 520 kts | 54° |
| 2026-04-21 16:38 | 14.43046 | 52.66882 | 36886 ft | 520 kts | 54° |
| 2026-04-21 16:38 | 14.46714 | 52.73322 | 36884 ft | 520 kts | 54° |
| 2026-04-21 16:39 | 14.50354 | 52.79718 | 36890 ft | 521 kts | 54° |
| 2026-04-21 16:39 | 14.54018 | 52.86163 | 36887 ft | 521 kts | 54° |
| 2026-04-21 16:40 | 14.57689 | 52.92625 | 36888 ft | 521 kts | 54° |
| 2026-04-21 16:41 | 14.70578 | 53.10197 | 36889 ft | 499 kts | 29° |
| 2026-04-21 16:42 | 14.76455 | 53.13958 | 36891 ft | 495 kts | 25° |
| 2026-04-21 16:42 | 14.82365 | 53.17617 | 36891 ft | 496 kts | 25° |
| 2026-04-21 16:43 | 14.88262 | 53.21331 | 36889 ft | 497 kts | 26° |
| 2026-04-21 16:43 | 14.94139 | 53.25076 | 36893 ft | 497 kts | 26° |
| 2026-04-21 16:44 | 14.99992 | 53.28817 | 36893 ft | 497 kts | 26° |
| 2026-04-21 16:44 | 15.05856 | 53.32564 | 36896 ft | 497 kts | 26° |
| 2026-04-21 16:45 | 15.11715 | 53.36308 | 36895 ft | 497 kts | 26° |
| 2026-04-21 16:45 | 15.17586 | 53.40062 | 36895 ft | 497 kts | 26° |
| 2026-04-21 16:46 | 15.23462 | 53.43821 | 36894 ft | 497 kts | 26° |
| 2026-04-21 16:46 | 15.29339 | 53.47584 | 36896 ft | 497 kts | 26° |
| 2026-04-21 16:47 | 15.35199 | 53.51339 | 36899 ft | 496 kts | 26° |
| 2026-04-21 16:47 | 15.41050 | 53.55091 | 36893 ft | 496 kts | 26° |
| 2026-04-21 16:48 | 15.46896 | 53.58881 | 36892 ft | 497 kts | 27° |
| 2026-04-21 16:48 | 15.52701 | 53.62763 | 36890 ft | 497 kts | 27° |
| 2026-04-21 16:49 | 15.58490 | 53.66646 | 36901 ft | 496 kts | 27° |
| 2026-04-21 16:49 | 15.64305 | 53.70531 | 36894 ft | 496 kts | 27° |
| 2026-04-21 16:50 | 15.70076 | 53.74382 | 36895 ft | 496 kts | 27° |
| 2026-04-21 16:50 | 15.75875 | 53.78255 | 36897 ft | 496 kts | 27° |
| 2026-04-21 16:51 | 15.81687 | 53.82142 | 36900 ft | 496 kts | 27° |
| 2026-04-21 16:51 | 15.87486 | 53.86021 | 36903 ft | 496 kts | 27° |
| 2026-04-21 16:52 | 15.93257 | 53.89849 | 36895 ft | 496 kts | 26° |
| 2026-04-21 16:52 | 15.99093 | 53.93691 | 36900 ft | 496 kts | 26° |
| 2026-04-21 16:53 | 16.04915 | 53.97529 | 36895 ft | 496 kts | 26° |
| 2026-04-21 16:53 | 16.10715 | 54.01363 | 36894 ft | 496 kts | 26° |
| 2026-04-21 16:54 | 16.16521 | 54.05204 | 36888 ft | 496 kts | 26° |
| 2026-04-21 16:54 | 16.22354 | 54.09067 | 36891 ft | 496 kts | 26° |
| 2026-04-21 16:55 | 16.28165 | 54.12918 | 36883 ft | 496 kts | 26° |
| 2026-04-21 16:55 | 16.34001 | 54.16788 | 36880 ft | 496 kts | 26° |
| 2026-04-21 16:56 | 16.39788 | 54.20628 | 36885 ft | 497 kts | 26° |
| 2026-04-21 16:56 | 16.45621 | 54.24501 | 36883 ft | 497 kts | 26° |
| 2026-04-21 16:57 | 16.51439 | 54.28367 | 36875 ft | 497 kts | 26° |
| 2026-04-21 16:57 | 16.57233 | 54.32221 | 36864 ft | 497 kts | 26° |
| 2026-04-21 16:58 | 16.63086 | 54.36116 | 36867 ft | 497 kts | 26° |
| 2026-04-21 16:58 | 16.68869 | 54.39968 | 36873 ft | 497 kts | 26° |
| 2026-04-21 16:59 | 16.74698 | 54.43853 | 36872 ft | 497 kts | 26° |
| 2026-04-21 16:59 | 16.80528 | 54.47741 | 36874 ft | 497 kts | 26° |
| 2026-04-21 17:00 | 16.86316 | 54.51605 | 36880 ft | 497 kts | 26° |
| 2026-04-21 17:00 | 16.91134 | 54.54822 | 36887 ft | 497 kts | 26° |
| 2026-04-21 17:01 | 16.97950 | 54.59368 | 36899 ft | 496 kts | 26° |
| 2026-04-21 17:01 | 17.03772 | 54.63254 | 36904 ft | 496 kts | 26° |
| 2026-04-21 17:02 | 17.09580 | 54.67136 | 36928 ft | 496 kts | 26° |
| 2026-04-21 17:02 | 17.15359 | 54.71002 | 36911 ft | 497 kts | 26° |
| 2026-04-21 17:03 | 17.21174 | 54.74895 | 36914 ft | 496 kts | 26° |
| 2026-04-21 17:03 | 17.26985 | 54.78788 | 36910 ft | 497 kts | 26° |
| 2026-04-21 17:04 | 17.32703 | 54.82915 | 36907 ft | 500 kts | 30° |
| 2026-04-21 17:04 | 17.38281 | 54.87195 | 36906 ft | 500 kts | 30° |
| 2026-04-21 17:05 | 17.43909 | 54.91483 | 36910 ft | 500 kts | 29° |
| 2026-04-21 17:05 | 17.49551 | 54.95734 | 36909 ft | 499 kts | 29° |
| 2026-04-21 17:06 | 17.55179 | 54.99959 | 36896 ft | 499 kts | 29° |
| 2026-04-21 17:06 | 17.60779 | 55.04171 | 36895 ft | 499 kts | 29° |
| 2026-04-21 17:07 | 17.65506 | 55.07731 | 36886 ft | 499 kts | 29° |
| 2026-04-21 17:07 | 17.72067 | 55.12680 | 36882 ft | 500 kts | 29° |
| 2026-04-21 17:08 | 17.77674 | 55.16910 | 36878 ft | 500 kts | 29° |
| 2026-04-21 17:08 | 17.83356 | 55.21211 | 36875 ft | 500 kts | 29° |
| 2026-04-21 17:09 | 17.91749 | 55.27576 | 36875 ft | 499 kts | 29° |
| 2026-04-21 17:09 | 17.97384 | 55.31852 | 36879 ft | 499 kts | 29° |
| 2026-04-21 17:10 | 18.03005 | 55.36122 | 36876 ft | 499 kts | 29° |
| 2026-04-21 17:10 | 18.08597 | 55.40371 | 36871 ft | 499 kts | 29° |
| 2026-04-21 17:11 | 18.14340 | 55.44409 | 36877 ft | 495 kts | 25° |
| 2026-04-21 17:11 | 18.20152 | 55.48269 | 36873 ft | 495 kts | 25° |
| 2026-04-21 17:12 | 18.25958 | 55.52198 | 36862 ft | 496 kts | 26° |
| 2026-04-21 17:12 | 18.31702 | 55.56131 | 36865 ft | 496 kts | 26° |
| 2026-04-21 17:13 | 18.37486 | 55.60091 | 36865 ft | 496 kts | 26° |
| 2026-04-21 17:13 | 18.43253 | 55.64047 | 36863 ft | 496 kts | 26° |
| 2026-04-21 17:14 | 18.49035 | 55.68020 | 36858 ft | 496 kts | 26° |
| 2026-04-21 17:14 | 18.54818 | 55.71996 | 36856 ft | 496 kts | 26° |
| 2026-04-21 17:15 | 18.60610 | 55.75981 | 36857 ft | 496 kts | 26° |
| 2026-04-21 17:15 | 18.66347 | 55.79932 | 36853 ft | 496 kts | 26° |
| 2026-04-21 17:16 | 18.72124 | 55.83914 | 36854 ft | 496 kts | 26° |
| 2026-04-21 17:16 | 18.77893 | 55.87893 | 36849 ft | 496 kts | 26° |
| 2026-04-21 17:17 | 18.83636 | 55.91859 | 36850 ft | 496 kts | 26° |
| 2026-04-21 17:17 | 18.89408 | 55.95847 | 36851 ft | 496 kts | 26° |
| 2026-04-21 17:18 | 18.95270 | 55.99642 | 36850 ft | 490 kts | 19° |
| 2026-04-21 17:18 | 19.01509 | 56.02352 | 36850 ft | 481 kts | 11° |
| 2026-04-21 17:19 | 19.07902 | 56.04121 | 36853 ft | 477 kts | 7° |
| 2026-04-21 17:19 | 19.14339 | 56.05789 | 36843 ft | 478 kts | 7° |
| 2026-04-21 17:20 | 19.20812 | 56.07497 | 36841 ft | 479 kts | 7° |
| 2026-04-21 17:20 | 19.27230 | 56.09219 | 36834 ft | 479 kts | 8° |
| 2026-04-21 17:21 | 19.33693 | 56.10963 | 36835 ft | 480 kts | 8° |
| 2026-04-21 17:21 | 19.40146 | 56.12705 | 36832 ft | 480 kts | 8° |
| 2026-04-21 17:22 | 19.46632 | 56.14456 | 36825 ft | 480 kts | 8° |
| 2026-04-21 17:22 | 19.51999 | 56.15905 | 36824 ft | 480 kts | 8° |
| 2026-04-21 17:23 | 19.59533 | 56.17942 | 36826 ft | 480 kts | 8° |
| 2026-04-21 17:23 | 19.66010 | 56.19694 | 36820 ft | 480 kts | 8° |
| 2026-04-21 17:24 | 19.71392 | 56.21151 | 36821 ft | 480 kts | 8° |
| 2026-04-21 17:24 | 19.78961 | 56.23202 | 36817 ft | 480 kts | 8° |
| 2026-04-21 17:25 | 19.84343 | 56.24662 | 36818 ft | 480 kts | 8° |
| 2026-04-21 17:25 | 19.91859 | 56.26702 | 36816 ft | 480 kts | 8° |
| 2026-04-21 17:26 | 19.98369 | 56.27989 | 36822 ft | 472 kts | 360° |
| 2026-04-21 17:26 | 20.03795 | 56.28195 | 36817 ft | 467 kts | 354° |
| 2026-04-21 17:27 | 20.11335 | 56.28152 | 36814 ft | 467 kts | 354° |
| 2026-04-21 17:27 | 20.16743 | 56.28136 | 36812 ft | 467 kts | 354° |
| 2026-04-21 17:28 | 20.23234 | 56.28141 | 36807 ft | 467 kts | 354° |
| 2026-04-21 17:28 | 20.29745 | 56.28154 | 36809 ft | 467 kts | 354° |
| 2026-04-21 17:29 | 20.36232 | 56.28167 | 36807 ft | 467 kts | 354° |
| 2026-04-21 17:29 | 20.43798 | 56.28180 | 36809 ft | 467 kts | 354° |
| 2026-04-21 17:30 | 20.50296 | 56.28191 | 36812 ft | 468 kts | 354° |
| 2026-04-21 17:30 | 20.55694 | 56.28135 | 36818 ft | 465 kts | 351° |
| 2026-04-21 17:31 | 20.62088 | 56.27334 | 36817 ft | 461 kts | 347° |
| 2026-04-21 17:31 | 20.68441 | 56.26374 | 36812 ft | 462 kts | 347° |
| 2026-04-21 17:32 | 20.74774 | 56.25434 | 36812 ft | 462 kts | 347° |
| 2026-04-21 17:32 | 20.81144 | 56.24509 | 36801 ft | 463 kts | 347° |
| 2026-04-21 17:33 | 20.87528 | 56.23587 | 36796 ft | 463 kts | 347° |
| 2026-04-21 17:33 | 20.92667 | 56.22844 | 36806 ft | 463 kts | 347° |
| 2026-04-21 17:34 | 20.97907 | 56.22085 | 36798 ft | 463 kts | 347° |
| 2026-04-21 17:34 | 21.04284 | 56.21160 | 36802 ft | 463 kts | 347° |
| 2026-04-21 17:35 | 21.10692 | 56.20230 | 36799 ft | 464 kts | 347° |
| 2026-04-21 17:35 | 21.17046 | 56.19306 | 36798 ft | 464 kts | 347° |
| 2026-04-21 17:36 | 21.23442 | 56.18376 | 36793 ft | 464 kts | 347° |
| 2026-04-21 17:36 | 21.29840 | 56.17445 | 36793 ft | 464 kts | 347° |
| 2026-04-21 17:37 | 21.36244 | 56.16509 | 36795 ft | 464 kts | 347° |
| 2026-04-21 17:37 | 21.42575 | 56.15582 | 36793 ft | 464 kts | 347° |
| 2026-04-21 17:38 | 21.48937 | 56.14650 | 36790 ft | 464 kts | 347° |
| 2026-04-21 17:38 | 21.55342 | 56.13710 | 36791 ft | 465 kts | 347° |
| 2026-04-21 17:39 | 21.61761 | 56.12769 | 36794 ft | 465 kts | 347° |
| 2026-04-21 17:39 | 21.68170 | 56.11827 | 36791 ft | 465 kts | 347° |
| 2026-04-21 17:40 | 21.74602 | 56.10882 | 36794 ft | 466 kts | 347° |
| 2026-04-21 17:40 | 21.80978 | 56.09944 | 36792 ft | 466 kts | 347° |
| 2026-04-21 17:41 | 21.87408 | 56.08997 | 36793 ft | 467 kts | 347° |
| 2026-04-21 17:41 | 21.93836 | 56.08049 | 36796 ft | 467 kts | 347° |
| 2026-04-21 17:42 | 22.00244 | 56.07104 | 36795 ft | 467 kts | 347° |
| 2026-04-21 17:42 | 22.06679 | 56.06151 | 36797 ft | 468 kts | 347° |
| 2026-04-21 17:43 | 22.13137 | 56.05191 | 36795 ft | 468 kts | 347° |
| 2026-04-21 17:43 | 22.19586 | 56.04230 | 36800 ft | 469 kts | 347° |
| 2026-04-21 17:44 | 22.26058 | 56.03266 | 36796 ft | 469 kts | 347° |
| 2026-04-21 17:44 | 22.32476 | 56.02310 | 36797 ft | 469 kts | 347° |
| 2026-04-21 17:45 | 22.38957 | 56.01343 | 36800 ft | 470 kts | 347° |
| 2026-04-21 17:45 | 22.45438 | 56.00381 | 36799 ft | 470 kts | 347° |
| 2026-04-21 17:46 | 22.51865 | 55.99429 | 36796 ft | 470 kts | 347° |
| 2026-04-21 17:46 | 22.58356 | 55.98466 | 36806 ft | 471 kts | 347° |
| 2026-04-21 17:47 | 22.64858 | 55.97499 | 36805 ft | 471 kts | 347° |
| 2026-04-21 17:47 | 22.71357 | 55.96532 | 36807 ft | 472 kts | 347° |
| 2026-04-21 17:48 | 22.77862 | 55.95563 | 36804 ft | 472 kts | 347° |
| 2026-04-21 17:48 | 22.84324 | 55.94601 | 36810 ft | 472 kts | 347° |
| 2026-04-21 17:49 | 22.90835 | 55.93631 | 36811 ft | 473 kts | 347° |
| 2026-04-21 17:49 | 22.97349 | 55.92659 | 36817 ft | 473 kts | 347° |
| 2026-04-21 17:50 | 22.98406 | 55.92501 | 36815 ft | 473 kts | 347° |
| 2026-04-21 17:51 | 23.16850 | 55.89733 | 36816 ft | 474 kts | 347° |
| 2026-04-21 17:51 | 23.23346 | 55.88753 | 36824 ft | 475 kts | 347° |
| 2026-04-21 17:52 | 23.29306 | 55.87854 | 36821 ft | 475 kts | 346° |
| 2026-04-21 17:52 | 23.35849 | 55.86867 | 36821 ft | 475 kts | 346° |
| 2026-04-21 17:53 | 23.42363 | 55.85882 | 36821 ft | 475 kts | 346° |
| 2026-04-21 17:53 | 23.48920 | 55.84891 | 36827 ft | 475 kts | 346° |
| 2026-04-21 17:54 | 23.55476 | 55.83898 | 36823 ft | 475 kts | 346° |
| 2026-04-21 17:54 | 23.62027 | 55.82914 | 36828 ft | 476 kts | 346° |
| 2026-04-21 17:55 | 23.68560 | 55.82029 | 36828 ft | 479 kts | 350° |
| 2026-04-21 17:55 | 23.75253 | 55.82128 | 36769 ft | 484 kts | 359° |
| 2026-04-21 17:56 | 23.78587 | 55.82482 | 36432 ft | 480 kts | 360° |
| 2026-04-21 17:56 | 23.81902 | 55.82858 | 35713 ft | 479 kts | 0° |
| 2026-04-21 17:56 | 23.85210 | 55.83231 | 34738 ft | 482 kts | 0° |
| 2026-04-21 17:56 | 23.88586 | 55.83599 | 33497 ft | 491 kts | 1° |
| 2026-04-21 17:57 | 23.92028 | 55.83963 | 32163 ft | 500 kts | 2° |
| 2026-04-21 17:57 | 23.95486 | 55.84324 | 31159 ft | 501 kts | 2° |
| 2026-04-21 17:57 | 23.98951 | 55.84686 | 30387 ft | 499 kts | 2° |
| 2026-04-21 17:57 | 24.02359 | 55.85042 | 29695 ft | 488 kts | 3° |
| 2026-04-21 17:58 | 24.05659 | 55.85390 | 28673 ft | 466 kts | 2° |
| 2026-04-21 17:58 | 24.08794 | 55.85721 | 27975 ft | 442 kts | 2° |
| 2026-04-21 17:58 | 24.11779 | 55.86034 | 27349 ft | 421 kts | 2° |
| 2026-04-21 17:58 | 24.14634 | 55.86332 | 26800 ft | 403 kts | 2° |
| 2026-04-21 17:59 | 24.17373 | 55.86615 | 26258 ft | 389 kts | 1° |
| 2026-04-21 17:59 | 24.20033 | 55.86889 | 25756 ft | 379 kts | 1° |
| 2026-04-21 17:59 | 24.22627 | 55.87156 | 25256 ft | 374 kts | 1° |
| 2026-04-21 17:59 | 24.25222 | 55.87423 | 24760 ft | 374 kts | 1° |
| 2026-04-21 18:00 | 24.27830 | 55.87692 | 24249 ft | 382 kts | 1° |
| 2026-04-21 18:00 | 24.30486 | 55.88000 | 23730 ft | 398 kts | 4° |
| 2026-04-21 18:00 | 24.33290 | 55.88490 | 23132 ft | 416 kts | 6° |
| 2026-04-21 18:00 | 24.36119 | 55.89343 | 22487 ft | 434 kts | 18° |
| 2026-04-21 18:01 | 24.38854 | 55.90872 | 21891 ft | 448 kts | 29° |
| 2026-04-21 18:01 | 24.41335 | 55.92972 | 21277 ft | 453 kts | 39° |
| 2026-04-21 18:01 | 24.43590 | 55.95284 | 20695 ft | 441 kts | 41° |
| 2026-04-21 18:01 | 24.45798 | 55.97599 | 20102 ft | 422 kts | 41° |
| 2026-04-21 18:02 | 24.47903 | 55.99777 | 19579 ft | 417 kts | 40° |
| 2026-04-21 18:02 | 24.50015 | 56.01913 | 19045 ft | 429 kts | 40° |
| 2026-04-21 18:02 | 24.52228 | 56.04127 | 18474 ft | 438 kts | 40° |
| 2026-04-21 18:02 | 24.54503 | 56.06401 | 17814 ft | 440 kts | 40° |
| 2026-04-21 18:03 | 24.56793 | 56.08689 | 17169 ft | 438 kts | 40° |
| 2026-04-21 18:03 | 24.59181 | 56.10708 | 16552 ft | 432 kts | 29° |
| 2026-04-21 18:03 | 24.61829 | 56.12156 | 15973 ft | 425 kts | 19° |
| 2026-04-21 18:03 | 24.64640 | 56.13108 | 15349 ft | 419 kts | 9° |
| 2026-04-21 18:04 | 24.67495 | 56.13591 | 14760 ft | 415 kts | 6° |
| 2026-04-21 18:04 | 24.70354 | 56.14055 | 14186 ft | 413 kts | 7° |
| 2026-04-21 18:04 | 24.73167 | 56.14550 | 13713 ft | 409 kts | 7° |
| 2026-04-21 18:04 | 24.75952 | 56.14846 | 13070 ft | 396 kts | 354° |
| 2026-04-21 18:05 | 24.78591 | 56.14147 | 12522 ft | 387 kts | 333° |
| 2026-04-21 18:05 | 24.80854 | 56.12617 | 11973 ft | 380 kts | 319° |
| 2026-04-21 18:05 | 24.82663 | 56.10582 | 11408 ft | 375 kts | 305° |
| 2026-04-21 18:05 | 24.84128 | 56.08230 | 11024 ft | 367 kts | 301° |
| 2026-04-21 18:06 | 24.85492 | 56.05925 | 10862 ft | 355 kts | 301° |
| 2026-04-21 18:06 | 24.86811 | 56.03689 | 10693 ft | 344 kts | 301° |
| 2026-04-21 18:06 | 24.88101 | 56.01520 | 10539 ft | 333 kts | 301° |
| 2026-04-21 18:06 | 24.89359 | 55.99423 | 10408 ft | 323 kts | 301° |
| 2026-04-21 18:07 | 24.90578 | 55.97403 | 10270 ft | 313 kts | 301° |
| 2026-04-21 18:07 | 24.91768 | 55.95439 | 10138 ft | 304 kts | 301° |
| 2026-04-21 18:07 | 24.92925 | 55.93533 | 9959 ft | 297 kts | 301° |
| 2026-04-21 18:07 | 24.94051 | 55.91679 | 9605 ft | 282 kts | 301° |
| 2026-04-21 18:08 | 24.95105 | 55.89945 | 9254 ft | 265 kts | 302° |
| 2026-04-21 18:08 | 24.96095 | 55.88317 | 8961 ft | 250 kts | 301° |
| 2026-04-21 18:08 | 24.97084 | 55.86685 | 8672 ft | 262 kts | 302° |
| 2026-04-21 18:08 | 24.98119 | 55.84976 | 8388 ft | 278 kts | 302° |
| 2026-04-21 18:09 | 24.99241 | 55.83124 | 8055 ft | 297 kts | 302° |
| 2026-04-21 18:09 | 25.00365 | 55.81236 | 7821 ft | 291 kts | 301° |
| 2026-04-21 18:09 | 25.01396 | 55.79388 | 7375 ft | 282 kts | 300° |
| 2026-04-21 18:09 | 25.02365 | 55.77634 | 7043 ft | 285 kts | 300° |
| 2026-04-21 18:10 | 25.03401 | 55.75766 | 6677 ft | 286 kts | 301° |
| 2026-04-21 18:10 | 25.04442 | 55.73892 | 6344 ft | 285 kts | 301° |
| 2026-04-21 18:10 | 25.05463 | 55.72062 | 6167 ft | 276 kts | 301° |
| 2026-04-21 18:10 | 25.06478 | 55.70304 | 6036 ft | 268 kts | 302° |
| 2026-04-21 18:11 | 25.07474 | 55.68573 | 5716 ft | 267 kts | 302° |
| 2026-04-21 18:11 | 25.08451 | 55.66834 | 5384 ft | 267 kts | 302° |
| 2026-04-21 18:11 | 25.09405 | 55.65117 | 5060 ft | 266 kts | 302° |
| 2026-04-21 18:11 | 25.10364 | 55.63382 | 4716 ft | 255 kts | 302° |
| 2026-04-21 18:12 | 25.11252 | 55.61778 | 4396 ft | 241 kts | 302° |
| 2026-04-21 18:12 | 25.12102 | 55.60243 | 4102 ft | 228 kts | 302° |
| 2026-04-21 18:12 | 25.12903 | 55.58795 | 3806 ft | 215 kts | 302° |
| 2026-04-21 18:12 | 25.13657 | 55.57434 | 3626 ft | 203 kts | 303° |
| 2026-04-21 18:13 | 25.14371 | 55.56146 | 3364 ft | 191 kts | 303° |
| 2026-04-21 18:13 | 25.15039 | 55.54937 | 3111 ft | 179 kts | 303° |
| 2026-04-21 18:13 | 25.15694 | 55.53757 | 2904 ft | 179 kts | 304° |
| 2026-04-21 18:13 | 25.16342 | 55.52585 | 2656 ft | 180 kts | 304° |
| 2026-04-21 18:14 | 25.17574 | 55.50356 | 2214 ft | 159 kts | 305° |
| 2026-04-21 18:14 | 25.18143 | 55.49330 | 2016 ft | 156 kts | 306° |
| 2026-04-21 18:14 | 25.18714 | 55.48300 | 1823 ft | 157 kts | 306° |
| 2026-04-21 18:15 | 25.19279 | 55.47280 | 1626 ft | 156 kts | 306° |
| 2026-04-21 18:15 | 25.19850 | 55.46267 | 1410 ft | 153 kts | 306° |
| 2026-04-21 18:15 | 25.20407 | 55.45267 | 1254 ft | 154 kts | 304° |
| 2026-04-21 18:15 | 25.20948 | 55.44245 | 1106 ft | 153 kts | 304° |
| 2026-04-21 18:16 | 25.21475 | 55.43258 | 928 ft | 150 kts | 304° |
| 2026-04-21 18:16 | 25.22017 | 55.42296 | 750 ft | 146 kts | 305° |
| 2026-04-21 18:16 | 25.22542 | 55.41339 | 624 ft | 147 kts | 302° |
| 2026-04-21 18:16 | 25.23074 | 55.40379 | 379 ft | 147 kts | 303° |
| 2026-04-21 18:17 | 25.23611 | 55.39434 | 113 ft | 146 kts | 303° |
| 2026-04-21 18:17 | 25.24128 | 55.38516 | 36 ft | 129 kts | 296° |
| 2026-04-21 18:17 | 25.24512 | 55.37820 | 34 ft | 86 kts | 301° |
| 2026-04-21 18:17 | 25.24726 | 55.37438 | 33 ft | 45 kts | 299° |
| 2026-04-21 18:18 | 25.24783 | 55.37183 | 33 ft | 25 kts | 274° |
| 2026-04-21 18:18 | 25.24788 | 55.37072 | 30 ft | 0 kts | 272° |
| 2026-04-21 18:18 | 25.24789 | 55.37071 | 30 ft | 0 kts | 272° |
| 2026-04-21 18:19 | 25.24789 | 55.37068 | 30 ft | 2 kts | 272° |
| 2026-04-21 18:19 | 25.24790 | 55.37045 | 29 ft | 3 kts | 272° |
| 2026-04-21 18:19 | 25.24789 | 55.37017 | 29 ft | 4 kts | 265° |
| 2026-04-21 18:19 | 25.24778 | 55.36982 | 28 ft | 6 kts | 239° |
| 2026-04-21 18:20 | 25.24748 | 55.36949 | 28 ft | 7 kts | 223° |
| 2026-04-21 18:20 | 25.24726 | 55.36905 | 27 ft | 7 kts | 270° |
| 2026-04-21 18:20 | 25.24745 | 55.36850 | 27 ft | 8 kts | 297° |
| 2026-04-21 18:20 | 25.24769 | 55.36792 | 27 ft | 9 kts | 288° |
| 2026-04-21 18:21 | 25.24785 | 55.36727 | 27 ft | 9 kts | 283° |
| 2026-04-21 18:21 | 25.24806 | 55.36654 | 27 ft | 10 kts | 291° |
| 2026-04-21 18:21 | 25.24839 | 55.36580 | 27 ft | 11 kts | 301° |
| 2026-04-21 18:21 | 25.24872 | 55.36509 | 26 ft | 10 kts | 283° |
| 2026-04-21 18:22 | 25.24842 | 55.36462 | 26 ft | 6 kts | 213° |
| 2026-04-21 18:22 | 25.24832 | 55.36455 | 26 ft | 0 kts | 214° |
| 2026-04-21 18:22 | 25.24828 | 55.36451 | 26 ft | 1 kts | 216° |
| 2026-04-21 18:23 | 25.24820 | 55.36445 | 26 ft | 0 kts | 212° |
| 2026-04-21 18:23 | 25.24814 | 55.36441 | 31 ft | 2 kts | 212° |
| 2026-04-21 18:23 | 25.24810 | 55.36438 | 30 ft | 1 kts | 212° |
| 2026-04-21 18:23 | 25.24806 | 55.36435 | 31 ft | 0 kts | 212° |